createdAt,value
2022-09-13T00:01:11.654Z,16.79
2022-09-13T00:03:41.267Z,16.76
2022-09-13T00:06:13.340Z,16.73
2022-09-13T00:08:43.039Z,16.70
2022-09-13T00:11:17.924Z,16.64
2022-09-13T00:13:47.108Z,16.57
2022-09-13T00:16:18.058Z,16.50
2022-09-13T00:18:48.550Z,16.44
2022-09-13T00:21:19.062Z,16.39
2022-09-13T00:23:48.916Z,16.31
2022-09-13T00:26:21.303Z,16.29
2022-09-13T00:28:52.124Z,16.23
2022-09-13T00:31:21.520Z,16.19
2022-09-13T00:33:51.458Z,16.14
2022-09-13T00:36:19.737Z,16.09
2022-09-13T00:38:48.407Z,16.05
2022-09-13T00:41:19.516Z,15.98
2022-09-13T00:43:52.266Z,15.95
2022-09-13T00:46:33.214Z,15.90
2022-09-13T00:49:13.415Z,15.87
2022-09-13T00:51:45.818Z,15.82
2022-09-13T00:54:15.676Z,15.77
2022-09-13T00:56:49.695Z,15.72
2022-09-13T00:59:26.139Z,15.67
2022-09-13T01:01:57.973Z,15.65
2022-09-13T01:04:31.922Z,15.63
2022-09-13T01:07:05.399Z,15.63
2022-09-13T01:09:37.041Z,15.63
2022-09-13T01:12:16.056Z,15.59
2022-09-13T01:14:46.260Z,15.54
2022-09-13T01:17:14.475Z,15.51
2022-09-13T01:19:44.108Z,15.49
2022-09-13T01:22:56.771Z,15.45
2022-09-13T01:26:10.092Z,15.37
2022-09-13T01:29:10.610Z,15.34
2022-09-13T01:31:49.989Z,15.33
2022-09-13T01:34:33.152Z,15.34
2022-09-13T01:37:32.413Z,15.34
2022-09-13T01:40:09.995Z,15.37
2022-09-13T01:42:57.856Z,15.39
2022-09-13T01:45:37.197Z,15.39
2022-09-13T01:48:17.906Z,15.37
2022-09-13T01:50:53.954Z,15.37
2022-09-13T01:53:32.569Z,15.40
2022-09-13T01:56:08.467Z,15.39
2022-09-13T01:58:44.881Z,15.36
2022-09-13T02:01:18.785Z,15.33
2022-09-13T02:03:55.640Z,15.29
2022-09-13T02:06:27.438Z,15.25
2022-09-13T02:09:00.869Z,15.22
2022-09-13T02:11:30.125Z,15.18
2022-09-13T02:14:04.331Z,15.15
2022-09-13T02:16:38.956Z,15.11
2022-09-13T02:19:15.032Z,15.06
2022-09-13T02:21:47.866Z,15.05
2022-09-13T02:24:21.637Z,15.06
2022-09-13T02:26:54.104Z,15.07
2022-09-13T02:29:25.904Z,15.04
2022-09-13T02:32:03.389Z,15.03
2022-09-13T02:34:39.222Z,15.06
2022-09-13T02:37:10.856Z,15.05
2022-09-13T02:39:46.991Z,15.04
2022-09-13T02:42:20.276Z,15.03
2022-09-13T02:44:52.346Z,15.03
2022-09-13T02:47:39.541Z,15.00
2022-09-13T02:50:23.662Z,14.96
2022-09-13T02:53:02.667Z,14.98
2022-09-13T02:55:40.347Z,15.03
2022-09-13T02:58:14.150Z,15.07
2022-09-13T03:00:43.027Z,15.12
2022-09-13T03:03:16.663Z,15.16
2022-09-13T03:05:46.399Z,15.19
2022-09-13T03:08:17.816Z,15.19
2022-09-13T03:11:12.710Z,15.17
2022-09-13T03:14:19.070Z,15.19
2022-09-13T03:17:09.200Z,15.17
2022-09-13T03:20:12.377Z,15.14
2022-09-13T03:23:32.812Z,15.10
2022-09-13T03:26:29.287Z,15.01
2022-09-13T03:29:21.720Z,14.95
2022-09-13T03:31:58.422Z,14.94
2022-09-13T03:34:38.520Z,14.93
2022-09-13T03:37:12.708Z,14.91
2022-09-13T03:39:49.502Z,14.91
2022-09-13T03:42:27.087Z,14.90
2022-09-13T03:44:58.741Z,14.91
2022-09-13T03:47:29.349Z,14.93
2022-09-13T03:49:59.470Z,14.94
2022-09-13T03:52:28.093Z,14.92
2022-09-13T03:54:59.025Z,14.93
2022-09-13T03:57:27.292Z,14.91
2022-09-13T03:59:57.948Z,14.87
2022-09-13T04:02:27.876Z,14.81
2022-09-13T04:04:56.432Z,14.75
2022-09-13T04:07:26.284Z,14.71
2022-09-13T04:09:54.766Z,14.68
2022-09-13T04:12:24.452Z,14.63
2022-09-13T04:14:52.779Z,14.58
2022-09-13T04:17:21.348Z,14.59
2022-09-13T04:19:49.839Z,14.58
2022-09-13T04:22:18.326Z,14.59
2022-09-13T04:24:46.551Z,14.60
2022-09-13T04:27:15.077Z,14.62
2022-09-13T04:29:44.616Z,14.67
2022-09-13T04:32:12.811Z,14.70
2022-09-13T04:34:41.294Z,14.73
2022-09-13T04:37:10.307Z,14.74
2022-09-13T04:39:38.499Z,14.78
2022-09-13T04:42:08.164Z,14.81
2022-09-13T04:44:36.359Z,14.84
2022-09-13T04:47:08.208Z,14.87
2022-09-13T04:49:36.855Z,14.90
2022-09-13T04:52:05.279Z,14.92
2022-09-13T04:54:33.860Z,14.91
2022-09-13T04:57:02.044Z,14.89
2022-09-13T04:59:30.235Z,14.87
2022-09-13T05:01:58.536Z,14.85
2022-09-13T05:04:28.117Z,14.82
2022-09-13T05:06:57.709Z,14.80
2022-09-13T05:09:26.443Z,14.81
2022-09-13T05:11:54.914Z,14.81
2022-09-13T05:14:23.289Z,14.84
2022-09-13T05:16:51.512Z,14.87
2022-09-13T05:19:19.715Z,14.89
2022-09-13T05:21:49.304Z,14.90
2022-09-13T05:24:17.666Z,14.91
2022-09-13T05:26:46.120Z,14.94
2022-09-13T05:29:14.380Z,14.99
2022-09-13T05:31:44.632Z,15.02
2022-09-13T05:34:17.547Z,15.07
2022-09-13T05:36:48.436Z,15.12
2022-09-13T05:39:39.718Z,15.15
2022-09-13T05:42:11.173Z,15.15
2022-09-13T05:44:39.417Z,15.17
2022-09-13T05:47:07.864Z,15.20
2022-09-13T05:49:45.967Z,15.24
2022-09-13T05:52:25.020Z,15.32
2022-09-13T05:54:54.556Z,15.40
2022-09-13T05:57:22.787Z,15.47
2022-09-13T05:59:51.247Z,15.55
2022-09-13T06:02:19.474Z,15.61
2022-09-13T06:04:47.658Z,15.68
2022-09-13T06:07:16.175Z,15.75
2022-09-13T06:09:45.228Z,15.81
2022-09-13T06:12:14.811Z,15.86
2022-09-13T06:14:42.980Z,15.93
2022-09-13T06:17:11.223Z,15.98
2022-09-13T06:19:39.745Z,16.06
2022-09-13T06:22:08.074Z,16.11
2022-09-13T06:24:38.376Z,16.15
2022-09-13T06:27:07.043Z,16.20
2022-09-13T06:29:36.586Z,16.27
2022-09-13T06:32:05.600Z,16.30
2022-09-13T06:34:33.803Z,16.31
2022-09-13T06:37:02.006Z,16.33
2022-09-13T06:39:32.005Z,16.36
2022-09-13T06:42:00.704Z,16.40
2022-09-13T06:44:41.987Z,16.44
2022-09-13T06:47:10.931Z,16.48
2022-09-13T06:49:39.465Z,16.52
2022-09-13T06:52:07.712Z,16.57
2022-09-13T06:54:36.215Z,16.62
2022-09-13T06:57:04.656Z,16.69
2022-09-13T06:59:34.618Z,16.76
2022-09-13T07:02:04.382Z,16.82
2022-09-13T07:04:32.958Z,16.87
2022-09-13T07:07:01.943Z,16.94
2022-09-13T07:09:30.263Z,17.01
2022-09-13T07:11:59.552Z,17.09
2022-09-13T07:14:30.200Z,17.16
2022-09-13T07:16:58.624Z,17.23
2022-09-13T07:19:30.203Z,17.29
2022-09-13T07:21:59.072Z,17.34
2022-09-13T07:24:27.859Z,17.38
2022-09-13T07:26:56.601Z,17.43
2022-09-13T07:29:25.202Z,17.45
2022-09-13T07:31:55.369Z,17.49
2022-09-13T07:34:25.668Z,17.55
2022-09-13T07:36:55.756Z,17.60
2022-09-13T07:39:24.256Z,17.63
2022-09-13T07:41:53.721Z,17.68
2022-09-13T07:44:22.749Z,17.73
2022-09-13T07:46:50.940Z,17.78
2022-09-13T07:49:20.469Z,17.83
2022-09-13T07:51:51.161Z,17.85
2022-09-13T07:54:21.243Z,17.86
2022-09-13T07:56:51.591Z,17.85
2022-09-13T07:59:20.489Z,17.82
2022-09-13T08:01:50.751Z,17.79
2022-09-13T08:04:21.720Z,17.77
2022-09-13T08:06:50.320Z,17.81
2022-09-13T08:09:20.715Z,17.85
2022-09-13T08:11:52.789Z,17.87
2022-09-13T08:14:24.101Z,17.92
2022-09-13T08:16:55.666Z,17.97
2022-09-13T08:19:24.139Z,18.05
2022-09-13T08:21:52.308Z,18.12
2022-09-13T08:24:23.257Z,18.23
2022-09-13T08:26:52.758Z,18.32
2022-09-13T08:29:21.358Z,18.38
2022-09-13T08:31:49.786Z,18.43
2022-09-13T08:34:18.549Z,18.50
2022-09-13T08:36:47.596Z,18.58
2022-09-13T08:39:15.923Z,18.70
2022-09-13T08:42:17.064Z,18.83
2022-09-13T08:44:49.368Z,18.95
2022-09-13T08:47:33.560Z,19.07
2022-09-13T08:50:12.927Z,19.22
2022-09-13T08:52:57.550Z,19.31
2022-09-13T08:55:44.257Z,19.46
2022-09-13T08:58:53.317Z,19.59
2022-09-13T09:01:36.969Z,19.86
2022-09-13T09:04:14.716Z,20.19
2022-09-13T09:06:44.140Z,20.51
2022-09-13T09:09:19.160Z,20.88
2022-09-13T09:11:55.181Z,21.13
2022-09-13T09:14:32.879Z,21.35
2022-09-13T09:17:06.852Z,21.53
2022-09-13T09:19:40.631Z,21.61
2022-09-13T09:22:16.584Z,21.63
2022-09-13T09:24:50.112Z,21.59
2022-09-13T09:27:21.407Z,21.47
2022-09-13T09:29:58.041Z,21.36
2022-09-13T09:32:49.353Z,21.22
2022-09-13T09:35:32.380Z,21.18
2022-09-13T09:38:33.540Z,21.17
2022-09-13T09:41:07.107Z,21.17
2022-09-13T09:43:42.508Z,21.15
2022-09-13T09:46:15.428Z,21.14
2022-09-13T09:48:51.338Z,21.14
2022-09-13T09:51:22.170Z,21.20
2022-09-13T09:53:55.673Z,21.30
2022-09-13T09:56:26.900Z,21.39
2022-09-13T09:58:56.030Z,21.52
2022-09-13T10:01:29.045Z,21.72
2022-09-13T10:04:08.609Z,21.92
2022-09-13T10:06:39.689Z,22.25
2022-09-13T10:09:17.011Z,22.59
2022-09-13T10:11:50.079Z,22.88
2022-09-13T10:14:38.332Z,23.02
2022-09-13T10:17:18.521Z,23.07
2022-09-13T10:19:59.296Z,23.12
2022-09-13T10:22:28.984Z,23.19
2022-09-13T10:25:14.090Z,23.26
2022-09-13T10:27:43.817Z,23.29
2022-09-13T10:30:33.734Z,23.34
2022-09-13T10:33:04.002Z,23.35
2022-09-13T10:35:33.409Z,23.37
2022-09-13T10:38:02.032Z,23.42
2022-09-13T10:40:33.963Z,23.45
2022-09-13T10:43:07.045Z,23.49
2022-09-13T10:45:35.732Z,23.49
2022-09-13T10:48:14.279Z,23.39
2022-09-13T10:51:01.310Z,23.22
2022-09-13T10:53:37.851Z,22.95
2022-09-13T10:56:20.191Z,22.73
2022-09-13T10:58:48.432Z,22.59
2022-09-13T11:01:45.229Z,22.48
2022-09-13T11:05:06.393Z,22.40
2022-09-13T11:07:50.001Z,22.27
2022-09-13T11:10:30.127Z,22.16
2022-09-13T11:13:07.405Z,21.98
2022-09-13T11:15:54.378Z,21.73
2022-09-13T11:19:05.026Z,21.45
2022-09-13T11:21:49.324Z,21.19
2022-09-13T11:24:48.660Z,21.00
2022-09-13T11:27:26.062Z,20.92
2022-09-13T11:30:10.706Z,20.84
2022-09-13T11:33:15.763Z,20.72
2022-09-13T11:36:37.267Z,20.64
2022-09-13T11:39:19.179Z,20.62
2022-09-13T11:42:00.835Z,20.57
2022-09-13T11:45:21.913Z,20.52
2022-09-13T11:48:19.236Z,20.62
2022-09-13T11:50:59.385Z,20.72
2022-09-13T11:54:06.795Z,20.78
2022-09-13T11:56:40.812Z,20.86
2022-09-13T11:59:21.949Z,20.90
2022-09-13T12:01:58.581Z,21.01
2022-09-13T12:04:33.979Z,21.11
2022-09-13T12:07:09.406Z,21.21
2022-09-13T12:09:44.968Z,21.28
2022-09-13T12:12:15.728Z,21.32
2022-09-13T12:14:53.032Z,21.36
2022-09-13T12:17:30.454Z,21.36
2022-09-13T12:20:02.285Z,21.37
2022-09-13T12:22:35.789Z,21.41
2022-09-13T12:25:13.221Z,21.45
2022-09-13T12:27:51.760Z,21.52
2022-09-13T12:30:23.799Z,21.62
2022-09-13T12:32:58.138Z,21.74
2022-09-13T12:35:32.507Z,21.88
2022-09-13T12:38:37.780Z,22.01
2022-09-13T12:41:23.344Z,22.13
2022-09-13T12:44:39.853Z,22.26
2022-09-13T12:47:55.007Z,22.37
2022-09-13T12:50:47.295Z,22.47
2022-09-13T12:54:02.557Z,22.54
2022-09-13T12:56:56.749Z,22.65
2022-09-13T12:59:54.364Z,22.73
2022-09-13T13:02:36.588Z,22.86
2022-09-13T13:05:19.263Z,23.00
2022-09-13T13:07:54.131Z,23.17
2022-09-13T13:10:33.186Z,23.35
2022-09-13T13:13:20.067Z,23.64
2022-09-13T13:16:07.321Z,24.11
2022-09-13T13:18:48.844Z,24.44
2022-09-13T13:21:37.857Z,24.79
2022-09-13T13:24:47.331Z,25.10
2022-09-13T13:27:48.395Z,25.27
2022-09-13T13:30:54.025Z,25.35
2022-09-13T13:33:29.332Z,25.43
2022-09-13T13:35:57.598Z,25.57
2022-09-13T13:38:48.697Z,25.62
2022-09-13T13:41:54.360Z,25.59
2022-09-13T13:45:26.508Z,25.59
2022-09-13T13:48:08.901Z,25.62
2022-09-13T13:51:24.827Z,25.59
2022-09-13T13:54:02.164Z,25.51
2022-09-13T13:56:47.930Z,25.37
2022-09-13T13:59:26.759Z,25.22
2022-09-13T14:02:01.684Z,25.11
2022-09-13T14:05:09.332Z,24.95
2022-09-13T14:08:23.657Z,24.88
2022-09-13T14:11:00.784Z,24.85
2022-09-13T14:13:53.552Z,24.79
2022-09-13T14:16:40.018Z,24.74
2022-09-13T14:19:25.797Z,24.69
2022-09-13T14:22:16.560Z,24.60
2022-09-13T14:24:48.732Z,24.56
2022-09-13T14:27:21.244Z,24.48
2022-09-13T14:29:53.073Z,24.40
2022-09-13T14:32:25.447Z,24.32
2022-09-13T14:35:01.937Z,24.23
2022-09-13T14:37:33.720Z,24.17
2022-09-13T14:40:20.003Z,24.10
2022-09-13T14:42:51.354Z,24.07
2022-09-13T14:45:24.969Z,24.07
2022-09-13T14:47:59.092Z,24.06
2022-09-13T14:50:33.553Z,24.06
2022-09-13T14:53:05.987Z,24.08
2022-09-13T14:55:43.511Z,24.11
2022-09-13T14:58:20.062Z,24.15
2022-09-13T15:00:53.793Z,24.20
2022-09-13T15:03:22.658Z,24.22
2022-09-13T15:05:57.152Z,24.24
2022-09-13T15:08:44.957Z,24.22
2022-09-13T15:11:29.020Z,24.21
2022-09-13T15:14:28.543Z,24.17
2022-09-13T15:17:07.274Z,24.16
2022-09-13T15:19:42.059Z,24.12
2022-09-13T15:22:16.784Z,24.03
2022-09-13T15:24:49.390Z,24.01
2022-09-13T15:27:26.645Z,23.97
2022-09-13T15:29:58.097Z,23.94
2022-09-13T15:32:35.223Z,23.90
2022-09-13T15:35:03.974Z,23.88
2022-09-13T15:37:37.606Z,23.85
2022-09-13T15:40:20.228Z,23.81
2022-09-13T15:42:54.049Z,23.79
2022-09-13T15:45:24.107Z,23.77
2022-09-13T15:47:53.628Z,23.73
2022-09-13T15:50:26.839Z,23.69
2022-09-13T15:52:56.634Z,23.67
2022-09-13T15:55:25.635Z,23.67
2022-09-13T15:57:55.954Z,23.68
2022-09-13T16:00:27.094Z,23.69
2022-09-13T16:02:55.374Z,23.70
2022-09-13T16:05:23.765Z,23.72
2022-09-13T16:07:54.006Z,23.72
2022-09-13T16:10:24.401Z,23.71
2022-09-13T16:12:54.825Z,23.69
2022-09-13T16:15:23.013Z,23.67
2022-09-13T16:17:51.321Z,23.63
2022-09-13T16:20:19.936Z,23.57
2022-09-13T16:22:48.148Z,23.51
2022-09-13T16:25:17.210Z,23.46
2022-09-13T16:27:46.288Z,23.41
2022-09-13T16:30:19.804Z,23.36
2022-09-13T16:32:48.142Z,23.30
2022-09-13T16:35:17.004Z,23.23
2022-09-13T16:37:45.747Z,23.19
2022-09-13T16:40:14.266Z,23.14
2022-09-13T16:42:42.551Z,23.06
2022-09-13T16:45:12.533Z,22.98
2022-09-13T16:47:43.030Z,22.90
2022-09-13T16:50:11.811Z,22.83
2022-09-13T16:52:40.131Z,22.77
2022-09-13T16:55:09.703Z,22.71
2022-09-13T16:57:38.500Z,22.67
2022-09-13T17:00:11.037Z,22.61
2022-09-13T17:02:41.127Z,22.55
2022-09-13T17:05:11.071Z,22.52
2022-09-13T17:07:39.869Z,22.45
2022-09-13T17:10:10.091Z,22.38
2022-09-13T17:12:38.732Z,22.29
2022-09-13T17:15:08.699Z,22.22
2022-09-13T17:17:37.051Z,22.12
2022-09-13T17:20:11.955Z,22.04
2022-09-13T17:22:40.888Z,21.98
2022-09-13T17:25:11.295Z,21.89
2022-09-13T17:27:39.505Z,21.81
2022-09-13T17:30:11.216Z,21.76
2022-09-13T17:32:39.824Z,21.71
2022-09-13T17:35:11.756Z,21.66
2022-09-13T17:37:40.014Z,21.61
2022-09-13T17:40:09.278Z,21.57
2022-09-13T17:42:37.648Z,21.53
2022-09-13T17:45:06.928Z,21.49
2022-09-13T17:47:35.124Z,21.47
2022-09-13T17:50:03.351Z,21.42
2022-09-13T17:52:35.033Z,21.39
2022-09-13T17:55:03.881Z,21.35
2022-09-13T17:57:32.272Z,21.32
2022-09-13T18:00:00.805Z,21.27
2022-09-13T18:02:29.682Z,21.22
2022-09-13T18:04:59.555Z,21.17
2022-09-13T18:07:29.578Z,21.13
2022-09-13T18:09:59.108Z,21.10
2022-09-13T18:12:27.323Z,21.07
2022-09-13T18:14:55.640Z,21.05
2022-09-13T18:17:24.360Z,21.02
2022-09-13T18:19:52.697Z,21.00
2022-09-13T18:22:21.124Z,20.97
2022-09-13T18:24:49.314Z,20.94
2022-09-13T18:27:18.896Z,20.92
2022-09-13T18:29:47.526Z,20.90
2022-09-13T18:32:15.748Z,20.87
2022-09-13T18:34:44.209Z,20.87
2022-09-13T18:37:12.620Z,20.84
2022-09-13T18:39:40.859Z,20.83
2022-09-13T18:42:09.123Z,20.79
2022-09-13T18:44:38.889Z,20.77
2022-09-13T18:47:08.799Z,20.75
2022-09-13T18:49:37.158Z,20.72
2022-09-13T18:52:06.101Z,20.71
2022-09-13T18:54:34.283Z,20.69
2022-09-13T18:57:02.788Z,20.67
2022-09-13T18:59:32.156Z,20.66
2022-09-13T19:02:01.793Z,20.64
2022-09-13T19:04:31.895Z,20.61
2022-09-13T19:07:02.502Z,20.60
2022-09-13T19:09:30.793Z,20.57
2022-09-13T19:11:58.965Z,20.56
2022-09-13T19:14:29.324Z,20.53
2022-09-13T19:17:00.869Z,20.51
2022-09-13T19:19:31.930Z,20.50
2022-09-13T19:22:00.124Z,20.49
2022-09-13T19:24:28.351Z,20.50
2022-09-13T19:26:56.581Z,20.48
2022-09-13T19:29:24.892Z,20.46
2022-09-13T19:31:55.724Z,20.45
2022-09-13T19:34:24.403Z,20.44
2022-09-13T19:36:57.615Z,20.44
2022-09-13T19:39:29.492Z,20.44
2022-09-13T19:41:59.993Z,20.44
2022-09-13T19:44:28.540Z,20.44
2022-09-13T19:47:23.727Z,20.44
2022-09-13T19:49:45.035Z,20.45
2022-09-13T19:52:14.612Z,20.45
2022-09-13T19:54:43.122Z,20.43
2022-09-13T19:57:11.319Z,20.41
2022-09-13T19:59:39.588Z,20.40
2022-09-13T20:02:07.770Z,20.40
2022-09-13T20:04:36.541Z,20.40
2022-09-13T20:07:04.749Z,20.39
2022-09-13T20:09:34.356Z,20.38
2022-09-13T20:12:02.796Z,20.38
2022-09-13T20:14:32.737Z,20.38
2022-09-13T20:17:02.407Z,20.37
2022-09-13T20:19:40.945Z,20.36
2022-09-13T20:22:11.375Z,20.35
2022-09-13T20:24:41.035Z,20.35
2022-09-13T20:27:09.547Z,20.34
2022-09-13T20:29:37.874Z,20.32
2022-09-13T20:32:06.375Z,20.30
2022-09-13T20:34:35.129Z,20.28
2022-09-13T20:37:03.354Z,20.26
2022-09-13T20:39:31.599Z,20.24
2022-09-13T20:42:01.159Z,20.24
2022-09-13T20:44:29.635Z,20.23
2022-09-13T20:46:57.778Z,20.23
2022-09-13T20:49:26.263Z,20.21
2022-09-13T20:51:54.485Z,20.20
2022-09-13T20:54:22.687Z,20.20
2022-09-13T20:56:50.930Z,20.19
2022-09-13T20:59:21.173Z,20.17
2022-09-13T21:01:49.816Z,20.14
2022-09-13T21:04:18.278Z,20.13
2022-09-13T21:07:00.744Z,20.11
2022-09-13T21:09:29.162Z,20.09
2022-09-13T21:11:57.550Z,20.05
2022-09-13T21:14:27.301Z,20.03
2022-09-13T21:16:56.746Z,20.00
2022-09-13T21:19:26.529Z,19.97
2022-09-13T21:21:55.070Z,19.95
2022-09-13T21:24:23.224Z,19.95
2022-09-13T21:26:51.863Z,19.96
2022-09-13T21:29:20.059Z,19.94
2022-09-13T21:31:49.873Z,19.95
2022-09-13T21:34:19.928Z,19.93
2022-09-13T21:36:50.362Z,19.93
2022-09-13T21:39:19.399Z,19.90
2022-09-13T21:41:47.745Z,19.89
2022-09-13T21:44:16.812Z,19.87
2022-09-13T21:46:46.696Z,19.85
2022-09-13T21:49:16.776Z,19.83
2022-09-13T21:51:47.507Z,19.83
2022-09-13T21:54:18.088Z,19.82
2022-09-13T21:56:51.329Z,19.81
2022-09-13T21:59:21.529Z,19.80
2022-09-13T22:01:52.245Z,19.78
2022-09-13T22:04:27.053Z,19.76
2022-09-13T22:06:55.529Z,19.70
2022-09-13T22:09:26.855Z,19.71
2022-09-13T22:11:57.299Z,19.70
2022-09-13T22:14:26.548Z,19.72
2022-09-13T22:16:55.002Z,19.74
2022-09-13T22:19:27.079Z,19.75
2022-09-13T22:21:59.529Z,19.76
2022-09-13T22:24:31.763Z,19.75
2022-09-13T22:27:00.321Z,19.74
2022-09-13T22:29:29.200Z,19.74
2022-09-13T22:31:57.710Z,19.73
2022-09-13T22:34:30.681Z,19.73
2022-09-13T22:37:00.060Z,19.72
2022-09-13T22:39:28.421Z,19.71
2022-09-13T22:41:56.622Z,19.70
2022-09-13T22:44:24.857Z,19.70
2022-09-13T22:46:53.228Z,19.70
2022-09-13T22:49:21.579Z,19.69
2022-09-13T22:51:51.216Z,19.68
2022-09-13T22:54:20.529Z,19.67
2022-09-13T22:56:49.072Z,19.67
2022-09-13T22:59:20.148Z,19.66
2022-09-13T23:01:49.022Z,19.66
2022-09-13T23:04:17.600Z,19.66
2022-09-13T23:06:46.591Z,19.65
2022-09-13T23:09:19.190Z,19.64
2022-09-13T23:11:47.973Z,19.56
2022-09-13T23:14:19.813Z,19.44
2022-09-13T23:16:51.149Z,19.30
2022-09-13T23:19:23.221Z,19.18
2022-09-13T23:21:54.432Z,19.04
2022-09-13T23:24:25.114Z,18.96
2022-09-13T23:26:56.828Z,18.88
2022-09-13T23:29:25.467Z,18.81
2022-09-13T23:31:53.744Z,18.75
2022-09-13T23:34:23.120Z,18.68
2022-09-13T23:36:52.219Z,18.65
2022-09-13T23:39:21.243Z,18.61
2022-09-13T23:41:52.004Z,18.56
2022-09-13T23:44:20.485Z,18.53
2022-09-13T23:46:48.717Z,18.52
2022-09-13T23:49:17.637Z,18.47
2022-09-13T23:51:46.371Z,18.45
2022-09-13T23:54:15.139Z,18.42
2022-09-13T23:56:45.083Z,18.41
2022-09-13T23:59:14.983Z,18.41
